createdAt,value
2022-08-05T00:01:20.911Z,95676.19
2022-08-05T00:04:13.538Z,95664.94
2022-08-05T00:07:00.172Z,95666.31
2022-08-05T00:10:06.310Z,95664.69
2022-08-05T00:12:56.556Z,95667.13
2022-08-05T00:15:55.250Z,95647.97
2022-08-05T00:18:44.990Z,95647.69
2022-08-05T00:21:31.266Z,95652.88
2022-08-05T00:24:24.291Z,95667.94
2022-08-05T00:27:14.074Z,95663.56
2022-08-05T00:30:03.887Z,95670.09
2022-08-05T00:32:49.912Z,95654.22
2022-08-05T00:35:36.056Z,95659.41
2022-08-05T00:38:34.121Z,95658.59
2022-08-05T00:41:51.876Z,95669.75
2022-08-05T00:44:37.462Z,95657.13
2022-08-05T00:47:23.677Z,95668.91
2022-08-05T00:50:10.621Z,95670.28
2022-08-05T00:52:56.948Z,95666.16
2022-08-05T00:55:43.783Z,95656.84
2022-08-05T00:58:29.916Z,95668.59
2022-08-05T01:01:15.899Z,95666.69
2022-08-05T01:04:26.860Z,95658.75
2022-08-05T01:07:15.624Z,95665.28
2022-08-05T01:10:09.012Z,95657.38
2022-08-05T01:13:12.802Z,95656.53
2022-08-05T01:16:02.629Z,95634.34
2022-08-05T01:18:56.474Z,95651.34
2022-08-05T01:21:51.647Z,95644.69
2022-08-05T01:24:50.542Z,95631.00
2022-08-05T01:28:16.005Z,95650.16
2022-08-05T01:31:10.250Z,95641.91
2022-08-05T01:34:09.806Z,95654.50
2022-08-05T01:37:24.721Z,95632.06
2022-08-05T01:40:12.730Z,95659.44
2022-08-05T01:43:01.239Z,95651.22
2022-08-05T01:45:55.239Z,95659.41
2022-08-05T01:48:44.918Z,95661.88
2022-08-05T01:51:36.042Z,95641.31
2022-08-05T01:54:25.661Z,95652.31
2022-08-05T01:58:09.266Z,95643.81
2022-08-05T02:00:21.171Z,95654.47
2022-08-05T02:03:33.929Z,95641.31
2022-08-05T02:06:36.980Z,95647.41
2022-08-05T02:09:24.524Z,95647.88
2022-08-05T02:12:36.752Z,95657.19
2022-08-05T02:15:33.235Z,95641.38
2022-08-05T02:18:35.225Z,95640.25
2022-08-05T02:21:40.293Z,95659.38
2022-08-05T02:24:36.964Z,95659.34
2022-08-05T02:27:29.964Z,95648.72
2022-08-05T02:30:51.898Z,95646.72
2022-08-05T02:33:45.115Z,95652.16
2022-08-05T02:36:36.362Z,95644.25
2022-08-05T02:39:23.540Z,95644.50
2022-08-05T02:42:10.430Z,95645.53
2022-08-05T02:45:12.472Z,95643.44
2022-08-05T02:48:11.553Z,95642.81
2022-08-05T02:51:02.741Z,95640.03
2022-08-05T02:53:49.454Z,95644.94
2022-08-05T02:56:43.537Z,95633.00
2022-08-05T02:59:47.878Z,95642.59
2022-08-05T03:02:41.153Z,95651.94
2022-08-05T03:06:56.561Z,95648.59
2022-08-05T03:08:36.409Z,95635.81
2022-08-05T03:11:55.420Z,95637.50
2022-08-05T03:14:31.605Z,95643.75
2022-08-05T03:17:17.678Z,95628.69
2022-08-05T03:20:06.772Z,95630.59
2022-08-05T03:22:57.050Z,95638.25
2022-08-05T03:26:04.462Z,95641.03
2022-08-05T03:28:50.385Z,95624.66
2022-08-05T03:31:57.107Z,95642.41
2022-08-05T03:34:50.502Z,95646.53
2022-08-05T03:37:45.855Z,95634.16
2022-08-05T03:40:32.900Z,95632.22
2022-08-05T03:44:09.571Z,95644.63
2022-08-05T03:46:26.803Z,95645.72
2022-08-05T03:49:16.167Z,95623.50
2022-08-05T03:52:37.936Z,95650.03
2022-08-05T03:56:04.121Z,95636.41
2022-08-05T03:58:29.050Z,95641.06
2022-08-05T04:01:17.110Z,95645.41
2022-08-05T04:04:09.781Z,95647.63
2022-08-05T04:06:57.085Z,95644.22
2022-08-05T04:09:53.034Z,95647.03
2022-08-05T04:15:24.776Z,95636.84
2022-08-05T04:18:20.638Z,95641.50
2022-08-05T04:21:11.114Z,95646.50
2022-08-05T04:24:05.323Z,95638.34
2022-08-05T04:26:52.906Z,95640.56
2022-08-05T04:29:38.747Z,95622.44
2022-08-05T04:32:31.051Z,95647.66
2022-08-05T04:35:19.888Z,95630.72
2022-08-05T04:38:06.832Z,95644.97
2022-08-05T04:40:52.945Z,95631.59
2022-08-05T04:43:40.559Z,95627.75
2022-08-05T04:46:32.794Z,95645.00
2022-08-05T04:49:18.685Z,95625.81
2022-08-05T04:52:10.802Z,95625.88
2022-08-05T04:54:58.860Z,95630.75
2022-08-05T04:57:47.782Z,95638.44
2022-08-05T05:00:38.169Z,95636.84
2022-08-05T05:03:24.108Z,95633.59
2022-08-05T05:06:36.191Z,95616.88
2022-08-05T05:09:19.837Z,95640.69
2022-08-05T05:12:08.598Z,95635.25
2022-08-05T05:14:54.757Z,95630.09
2022-08-05T05:17:56.929Z,95634.47
2022-08-05T05:20:46.046Z,95633.69
2022-08-05T05:24:01.995Z,95636.13
2022-08-05T05:26:37.978Z,95616.72
2022-08-05T05:30:03.302Z,95631.28
2022-08-05T05:32:31.906Z,95618.75
2022-08-05T05:35:20.001Z,95616.81
2022-08-05T05:38:09.199Z,95622.03
2022-08-05T05:40:58.672Z,95619.78
2022-08-05T05:43:57.549Z,95620.13
2022-08-05T05:46:46.541Z,95616.28
2022-08-05T05:49:34.027Z,95608.09
2022-08-05T05:52:28.348Z,95619.94
2022-08-05T05:55:18.711Z,95620.78
2022-08-05T05:58:04.612Z,95628.16
2022-08-05T06:00:50.549Z,95627.38
2022-08-05T06:03:54.121Z,95623.03
2022-08-05T06:06:47.781Z,95630.16
2022-08-05T06:10:01.659Z,95615.13
2022-08-05T06:12:42.282Z,95617.59
2022-08-05T06:16:28.883Z,95632.63
2022-08-05T06:18:36.490Z,95625.00
2022-08-05T06:21:35.781Z,95631.59
2022-08-05T06:24:25.922Z,95629.72
2022-08-05T06:28:09.323Z,95611.13
2022-08-05T06:30:21.374Z,95629.72
2022-08-05T06:33:10.070Z,95627.56
2022-08-05T06:36:07.160Z,95629.19
2022-08-05T06:38:55.772Z,95610.34
2022-08-05T06:41:41.836Z,95633.03
2022-08-05T06:44:31.837Z,95640.16
2022-08-05T06:47:29.989Z,95634.13
2022-08-05T06:50:17.346Z,95623.47
2022-08-05T06:53:19.491Z,95623.41
2022-08-05T12:04:39.984Z,95418.69
2022-08-05T12:08:10.384Z,95401.59
2022-08-05T12:10:45.258Z,95397.41
2022-08-05T12:13:48.519Z,95413.31
2022-08-05T12:16:38.840Z,95403.94
2022-08-05T12:20:27.656Z,95398.25
2022-08-05T12:22:33.698Z,95393.56
2022-08-05T12:25:19.527Z,95392.78
2022-08-05T12:28:06.583Z,95395.38
2022-08-05T12:30:52.612Z,95384.66
2022-08-05T12:33:40.056Z,95386.09
2022-08-05T12:36:29.398Z,95374.69
2022-08-05T12:39:15.920Z,95383.47
2022-08-05T12:42:02.711Z,95384.59
2022-08-05T12:44:49.532Z,95373.31
2022-08-05T12:47:37.024Z,95373.13
2022-08-05T12:50:24.033Z,95363.63
2022-08-05T12:53:16.849Z,95375.91
2022-08-05T12:56:34.388Z,95373.09
2022-08-05T12:59:27.761Z,95366.94
2022-08-05T13:02:30.310Z,95357.69
2022-08-05T13:05:16.715Z,95361.06
2022-08-05T13:08:08.675Z,95363.19
2022-08-05T13:11:00.256Z,95343.84
2022-08-05T13:14:04.637Z,95352.00
2022-08-05T13:16:56.921Z,95346.44
2022-08-05T13:19:52.694Z,95351.56
2022-08-05T13:22:43.569Z,95358.84
2022-08-05T13:25:52.520Z,95334.50
2022-08-05T13:28:40.930Z,95340.06
2022-08-05T13:31:33.900Z,95327.50
2022-08-05T13:34:36.042Z,95314.13
2022-08-05T13:37:27.171Z,95323.34
2022-08-05T13:40:35.530Z,95317.03
2022-08-05T13:43:44.885Z,95327.38
2022-08-05T13:46:50.941Z,95331.22
2022-08-05T13:49:45.041Z,95324.75
2022-08-05T13:52:32.254Z,95323.13
2022-08-05T13:55:42.163Z,95323.13
2022-08-05T13:58:30.342Z,95304.28
2022-08-05T14:01:17.570Z,95297.00
2022-08-05T14:04:22.433Z,95319.59
2022-08-05T14:07:56.428Z,95315.75
2022-08-05T14:10:28.553Z,95302.41
2022-08-05T14:13:17.309Z,95295.31
2022-08-05T14:16:11.621Z,95307.31
2022-08-05T14:19:04.601Z,95294.88
2022-08-05T14:22:08.794Z,95300.63
2022-08-05T14:24:56.814Z,95286.44
2022-08-05T14:27:47.584Z,95306.41
2022-08-05T14:30:33.597Z,95298.22
2022-08-05T14:33:23.292Z,95273.47
2022-08-05T14:36:10.498Z,95288.19
2022-08-05T14:38:57.084Z,95280.72
2022-08-05T14:42:02.340Z,95289.88
2022-08-05T14:44:50.488Z,95288.00
2022-08-05T14:48:03.857Z,95287.41
2022-08-05T14:50:42.866Z,95273.34
2022-08-05T14:53:29.901Z,95280.56
2022-08-05T14:56:22.651Z,95285.34
2022-08-05T14:59:10.232Z,95284.06
2022-08-05T15:01:56.911Z,95284.94
2022-08-05T15:04:44.949Z,95264.19
2022-08-05T15:08:06.481Z,95257.44
2022-08-05T15:10:43.469Z,95271.34
2022-08-05T15:13:45.061Z,95268.44
2022-08-05T15:16:33.095Z,95250.09
2022-08-05T15:19:23.711Z,95266.03
2022-08-05T15:22:10.254Z,95241.53
2022-08-05T15:24:59.136Z,95249.59
2022-08-05T15:27:52.011Z,95262.13
2022-08-05T15:30:38.971Z,95246.66
2022-08-05T15:34:19.135Z,95251.53
2022-08-05T15:36:32.153Z,95256.78
2022-08-05T15:40:41.753Z,95248.38
2022-08-05T15:42:28.686Z,95254.31
2022-08-05T15:45:38.307Z,95255.91
2022-08-05T15:48:25.875Z,95254.91
2022-08-05T15:51:11.967Z,95250.38
2022-08-05T15:53:58.042Z,95254.50
2022-08-05T15:56:45.237Z,95251.47
2022-08-05T15:59:32.210Z,95260.44
2022-08-05T16:02:25.270Z,95248.84
2022-08-05T16:05:11.942Z,95257.34
2022-08-05T16:07:58.042Z,95245.09
2022-08-05T16:10:44.037Z,95240.66
2022-08-05T16:13:34.188Z,95236.19
2022-08-05T16:16:25.170Z,95249.47
2022-08-05T16:23:08.647Z,95243.03
2022-08-05T16:26:11.372Z,95248.66
2022-08-05T16:28:58.819Z,95225.94
2022-08-05T16:31:56.736Z,95244.66
2022-08-05T16:34:43.625Z,95232.59
2022-08-05T16:38:15.604Z,95243.91
2022-08-05T16:40:37.537Z,95247.13
2022-08-05T16:43:25.526Z,95248.09
2022-08-05T16:46:24.518Z,95245.31
2022-08-05T16:49:12.546Z,95250.72
2022-08-05T16:52:00.101Z,95250.06
2022-08-05T16:54:49.119Z,95253.53
2022-08-05T16:57:53.446Z,95265.19
2022-08-05T17:00:42.193Z,95248.19
2022-08-05T17:03:33.151Z,95252.25
2022-08-05T17:06:19.901Z,95251.13
2022-08-05T17:09:05.879Z,95259.47
2022-08-05T17:11:55.982Z,95258.56
2022-08-05T17:14:46.086Z,95251.59
2022-08-05T17:17:42.674Z,95267.81
2022-08-05T17:20:29.037Z,95273.13
2022-08-05T17:24:03.043Z,95292.34
2022-08-05T17:26:21.612Z,95270.84
2022-08-05T17:29:10.314Z,95290.91
2022-08-05T17:31:58.856Z,95276.41
2022-08-05T17:34:48.143Z,95289.84
2022-08-05T17:37:41.415Z,95287.03
2022-08-05T17:40:31.497Z,95280.66
2022-08-05T17:43:17.824Z,95286.72
2022-08-05T17:46:23.971Z,95296.75
2022-08-05T17:49:10.054Z,95291.50
2022-08-05T17:51:56.165Z,95294.34
2022-08-05T17:54:42.324Z,95286.53
2022-08-05T17:57:28.838Z,95296.47
2022-08-05T18:00:14.923Z,95289.06
2022-08-05T18:03:00.934Z,95296.13
2022-08-05T18:05:53.011Z,95293.97
2022-08-05T18:08:44.528Z,95306.19
2022-08-05T18:11:33.627Z,95303.63
2022-08-05T18:14:20.466Z,95308.88
2022-08-05T18:17:06.579Z,95290.25
2022-08-05T18:20:14.085Z,95305.31
2022-08-05T18:23:11.417Z,95319.97
2022-08-05T18:25:59.529Z,95321.44
2022-08-05T18:28:46.489Z,95313.53
2022-08-05T18:31:35.453Z,95323.44
2022-08-05T18:34:21.924Z,95303.63
2022-08-05T18:37:12.224Z,95313.69
2022-08-05T18:40:34.145Z,95325.28
2022-08-05T18:43:05.412Z,95323.94
2022-08-05T18:45:56.174Z,95329.66
2022-08-05T18:48:42.256Z,95325.75
2022-08-05T18:52:05.108Z,95322.81
2022-08-05T18:54:52.872Z,95323.75
2022-08-05T18:57:50.137Z,95326.81
2022-08-05T19:00:39.357Z,95339.94
2022-08-05T19:03:55.041Z,95339.06
2022-08-05T19:06:44.604Z,95345.53
2022-08-05T19:09:39.403Z,95348.88
2022-08-05T19:12:27.393Z,95351.56
2022-08-05T19:15:56.698Z,95347.81
2022-08-05T19:18:22.248Z,95351.34
2022-08-05T19:21:12.487Z,95356.94
2022-08-05T19:24:12.934Z,95355.41
2022-08-05T19:27:10.291Z,95357.41
2022-08-05T19:30:07.655Z,95365.56
2022-08-05T19:32:59.333Z,95357.13
2022-08-05T19:35:56.504Z,95361.44
2022-08-05T19:38:53.103Z,95349.03
2022-08-05T19:42:07.618Z,95356.78
2022-08-05T19:44:48.089Z,95358.03
2022-08-05T19:47:38.076Z,95346.84
2022-08-05T19:50:34.771Z,95347.75
2022-08-05T19:54:04.866Z,95373.34
2022-08-05T19:56:34.529Z,95372.38
2022-08-05T20:00:00.314Z,95361.53
2022-08-05T20:02:36.943Z,95368.25
2022-08-05T20:05:24.909Z,95372.75
2022-08-05T20:08:12.451Z,95371.72
2022-08-05T20:11:03.591Z,95361.72
2022-08-05T20:13:59.068Z,95358.25
2022-08-05T20:17:04.046Z,95360.09
2022-08-05T20:19:56.697Z,95364.56
2022-08-05T20:22:44.185Z,95359.00
2022-08-05T20:25:52.265Z,95350.91
2022-08-05T20:29:05.615Z,95354.34
2022-08-05T20:32:00.356Z,95357.47
2022-08-05T20:34:53.580Z,95359.00
2022-08-05T20:38:06.405Z,95348.81
2022-08-05T20:40:47.640Z,95358.34
2022-08-05T20:43:59.132Z,95346.56
2022-08-05T20:46:43.150Z,95366.56
2022-08-05T20:49:29.404Z,95347.91
2022-08-05T20:52:15.642Z,95362.97
2022-08-05T20:56:07.241Z,95356.56
2022-08-05T20:58:07.970Z,95348.75
2022-08-05T21:00:56.865Z,95369.53
2022-08-05T21:03:47.936Z,95366.94
2022-08-05T21:06:34.086Z,95366.13
2022-08-05T21:09:20.512Z,95361.16
2022-08-05T21:12:11.719Z,95368.78
2022-08-05T21:14:58.185Z,95361.22
2022-08-05T21:17:45.705Z,95354.50
2022-08-05T21:20:34.171Z,95363.53
2022-08-05T21:23:20.471Z,95357.41
2022-08-05T21:26:14.334Z,95356.63
2022-08-05T21:29:03.518Z,95362.41
2022-08-05T21:31:50.971Z,95363.38
2022-08-05T21:34:38.029Z,95377.63
2022-08-05T21:37:24.151Z,95367.81
2022-08-05T21:40:14.073Z,95363.50
2022-08-05T21:42:59.938Z,95375.59
2022-08-05T21:45:56.932Z,95360.06
2022-08-05T21:48:46.043Z,95393.50
2022-08-05T21:52:22.404Z,95378.72
2022-08-05T21:54:40.450Z,95388.06
2022-08-05T21:57:31.374Z,95390.88
2022-08-05T22:00:18.626Z,95382.38
2022-08-05T22:03:05.062Z,95377.78
2022-08-05T22:05:51.549Z,95379.72
2022-08-05T22:08:42.582Z,95384.09
2022-08-05T22:11:34.734Z,95385.22
2022-08-05T22:14:35.011Z,95386.84
2022-08-05T22:17:24.010Z,95381.16
2022-08-05T22:20:14.919Z,95390.50
2022-08-05T22:23:21.842Z,95388.88
2022-08-05T22:26:26.351Z,95390.56
2022-08-05T22:29:12.476Z,95368.44
2022-08-05T22:32:02.962Z,95378.84
2022-08-05T22:34:49.491Z,95376.38
2022-08-05T22:37:58.819Z,95376.38
2022-08-05T22:40:42.279Z,95370.97
2022-08-05T22:43:37.983Z,95358.16
2022-08-05T22:46:25.857Z,95373.75
2022-08-05T22:50:17.072Z,95383.34
2022-08-05T22:52:30.178Z,95380.09
2022-08-05T22:55:21.345Z,95364.31
2022-08-05T22:58:07.365Z,95367.06
2022-08-05T23:00:57.777Z,95370.34
2022-08-05T23:03:58.490Z,95391.13
2022-08-05T23:06:45.740Z,95380.84
2022-08-05T23:09:53.464Z,95393.44
2022-08-05T23:12:40.792Z,95389.63
2022-08-05T23:15:35.122Z,95382.53
2022-08-05T23:18:22.925Z,95384.19
2022-08-05T23:21:10.245Z,95382.28
2022-08-05T23:23:56.352Z,95382.28
2022-08-05T23:26:42.310Z,95367.28
2022-08-05T23:29:34.499Z,95382.06
2022-08-05T23:32:22.801Z,95368.47
2022-08-05T23:35:09.416Z,95369.84
2022-08-05T23:37:55.409Z,95375.03
2022-08-05T23:40:42.267Z,95371.78
2022-08-05T23:44:04.718Z,95380.56
2022-08-05T23:46:41.685Z,95369.91
2022-08-05T23:49:35.919Z,95362.88
2022-08-05T23:52:32.683Z,95359.88
2022-08-05T23:55:22.068Z,95371.09
2022-08-05T23:58:31.315Z,95368.38
